Adrian, Texas
Current Conditions -  °F | °C
As of 4:15 PM on Friday 24 Oct 2014 (Local Time) from KHRX Reporting Station
Clear Clear  
Wind Chill: 86°   Ceiling: Unl
Heat Index: 86°   Visibility: 10mi
Dew Point: 38°   Wind: 10mph
Humidity: 19%   Direction: 140°SE
Pressure: 30.12"   Gusts: NA
Location:  35.27°N, 102.67°W
Report Text: KHRX 242115Z AUTO 14009KT 10SM CLR 30/04 A3012 RMK AO2 T02990035
Loading
Personal Weather Stations






























Interactive Weather Map New forecast layout! Learn more

10-Day Weather Forecast

Advertisements
Track Severe Weather on mobile